sensor_id;sensor_type;location;lat;lon;timestamp;P1;durP1;ratioP1;P2;durP2;ratioP2
74679;SDS011;63211;48.548;2.704;2023-07-29T00:00:07;0.73;;;0.30;;
74679;SDS011;63211;48.548;2.704;2023-07-29T00:02:34;0.82;;;0.20;;
74679;SDS011;63211;48.548;2.704;2023-07-29T00:05:01;0.52;;;0.20;;
74679;SDS011;63211;48.548;2.704;2023-07-29T00:07:27;0.32;;;0.10;;
74679;SDS011;63211;48.548;2.704;2023-07-29T00:09:55;0.77;;;0.28;;
74679;SDS011;63211;48.548;2.704;2023-07-29T00:12:23;0.50;;;0.15;;
74679;SDS011;63211;48.548;2.704;2023-07-29T00:14:50;0.52;;;0.20;;
74679;SDS011;63211;48.548;2.704;2023-07-29T00:17:16;0.60;;;0.20;;
74679;SDS011;63211;48.548;2.704;2023-07-29T00:19:45;0.95;;;0.20;;
74679;SDS011;63211;48.548;2.704;2023-07-29T00:22:11;0.50;;;0.20;;
74679;SDS011;63211;48.548;2.704;2023-07-29T00:24:39;0.73;;;0.20;;
74679;SDS011;63211;48.548;2.704;2023-07-29T00:27:07;1.05;;;0.25;;
74679;SDS011;63211;48.548;2.704;2023-07-29T00:29:34;1.15;;;0.47;;
74679;SDS011;63211;48.548;2.704;2023-07-29T00:32:00;0.75;;;0.20;;
74679;SDS011;63211;48.548;2.704;2023-07-29T00:34:27;0.38;;;0.13;;
74679;SDS011;63211;48.548;2.704;2023-07-29T00:36:53;0.50;;;0.20;;
74679;SDS011;63211;48.548;2.704;2023-07-29T00:39:20;0.50;;;0.20;;
74679;SDS011;63211;48.548;2.704;2023-07-29T00:41:47;0.28;;;0.10;;
74679;SDS011;63211;48.548;2.704;2023-07-29T00:44:15;1.33;;;0.20;;
74679;SDS011;63211;48.548;2.704;2023-07-29T00:46:42;0.40;;;0.10;;
74679;SDS011;63211;48.548;2.704;2023-07-29T00:49:11;0.40;;;0.10;;
74679;SDS011;63211;48.548;2.704;2023-07-29T00:51:38;0.57;;;0.10;;
74679;SDS011;63211;48.548;2.704;2023-07-29T00:54:05;0.45;;;0.20;;
74679;SDS011;63211;48.548;2.704;2023-07-29T00:56:31;0.63;;;0.20;;
74679;SDS011;63211;48.548;2.704;2023-07-29T00:58:58;0.57;;;0.20;;
74679;SDS011;63211;48.548;2.704;2023-07-29T01:01:28;0.43;;;0.25;;
74679;SDS011;63211;48.548;2.704;2023-07-29T01:03:54;0.43;;;0.20;;
74679;SDS011;63211;48.548;2.704;2023-07-29T01:06:23;1.02;;;0.13;;
74679;SDS011;63211;48.548;2.704;2023-07-29T01:08:57;0.65;;;0.20;;
74679;SDS011;63211;48.548;2.704;2023-07-29T01:11:33;0.30;;;0.10;;
74679;SDS011;63211;48.548;2.704;2023-07-29T01:14:10;0.52;;;0.40;;
74679;SDS011;63211;48.548;2.704;2023-07-29T01:16:49;0.60;;;0.30;;
74679;SDS011;63211;48.548;2.704;2023-07-29T01:19:21;0.65;;;0.20;;
74679;SDS011;63211;48.548;2.704;2023-07-29T01:22:02;0.50;;;0.10;;
74679;SDS011;63211;48.548;2.704;2023-07-29T01:24:31;0.20;;;0.10;;
74679;SDS011;63211;48.548;2.704;2023-07-29T01:26:58;1.15;;;0.40;;
74679;SDS011;63211;48.548;2.704;2023-07-29T01:29:26;0.85;;;0.20;;
74679;SDS011;63211;48.548;2.704;2023-07-29T01:31:54;0.75;;;0.17;;
74679;SDS011;63211;48.548;2.704;2023-07-29T01:34:26;0.68;;;0.30;;
74679;SDS011;63211;48.548;2.704;2023-07-29T01:36:57;0.50;;;0.20;;
74679;SDS011;63211;48.548;2.704;2023-07-29T01:39:29;1.15;;;0.20;;
74679;SDS011;63211;48.548;2.704;2023-07-29T01:42:00;0.40;;;0.10;;
74679;SDS011;63211;48.548;2.704;2023-07-29T01:44:27;0.32;;;0.10;;
74679;SDS011;63211;48.548;2.704;2023-07-29T01:46:54;0.40;;;0.28;;
74679;SDS011;63211;48.548;2.704;2023-07-29T01:49:21;0.63;;;0.40;;
74679;SDS011;63211;48.548;2.704;2023-07-29T01:51:48;0.20;;;0.10;;
74679;SDS011;63211;48.548;2.704;2023-07-29T01:54:14;0.13;;;0.10;;
74679;SDS011;63211;48.548;2.704;2023-07-29T01:56:41;0.20;;;0.10;;
74679;SDS011;63211;48.548;2.704;2023-07-29T01:59:09;0.38;;;0.15;;
74679;SDS011;63211;48.548;2.704;2023-07-29T02:01:35;0.32;;;0.15;;
74679;SDS011;63211;48.548;2.704;2023-07-29T02:04:02;0.10;;;0.10;;
74679;SDS011;63211;48.548;2.704;2023-07-29T02:06:28;1.23;;;0.30;;
74679;SDS011;63211;48.548;2.704;2023-07-29T02:08:55;0.30;;;0.10;;
74679;SDS011;63211;48.548;2.704;2023-07-29T02:11:22;0.38;;;0.10;;
74679;SDS011;63211;48.548;2.704;2023-07-29T02:13:52;0.15;;;0.10;;
74679;SDS011;63211;48.548;2.704;2023-07-29T02:16:20;0.30;;;0.20;;
74679;SDS011;63211;48.548;2.704;2023-07-29T02:18:47;0.25;;;0.10;;
74679;SDS011;63211;48.548;2.704;2023-07-29T02:21:14;0.40;;;0.13;;
74679;SDS011;63211;48.548;2.704;2023-07-29T02:23:41;0.52;;;0.10;;
74679;SDS011;63211;48.548;2.704;2023-07-29T02:26:07;0.28;;;0.10;;
74679;SDS011;63211;48.548;2.704;2023-07-29T02:28:34;0.38;;;0.22;;
74679;SDS011;63211;48.548;2.704;2023-07-29T02:31:14;0.30;;;0.10;;
74679;SDS011;63211;48.548;2.704;2023-07-29T02:33:43;0.30;;;0.10;;
74679;SDS011;63211;48.548;2.704;2023-07-29T02:36:11;0.40;;;0.10;;
74679;SDS011;63211;48.548;2.704;2023-07-29T02:38:38;0.60;;;0.28;;
74679;SDS011;63211;48.548;2.704;2023-07-29T02:41:04;0.20;;;0.10;;
74679;SDS011;63211;48.548;2.704;2023-07-29T02:43:31;0.30;;;0.10;;
74679;SDS011;63211;48.548;2.704;2023-07-29T02:45:58;0.10;;;0.10;;
74679;SDS011;63211;48.548;2.704;2023-07-29T02:48:25;0.30;;;0.10;;
74679;SDS011;63211;48.548;2.704;2023-07-29T02:50:54;0.40;;;0.15;;
74679;SDS011;63211;48.548;2.704;2023-07-29T02:53:21;0.20;;;0.20;;
74679;SDS011;63211;48.548;2.704;2023-07-29T02:55:48;1.05;;;0.32;;
74679;SDS011;63211;48.548;2.704;2023-07-29T02:58:15;0.45;;;0.10;;
74679;SDS011;63211;48.548;2.704;2023-07-29T03:00:42;0.40;;;0.10;;
74679;SDS011;63211;48.548;2.704;2023-07-29T03:03:08;0.22;;;0.10;;
74679;SDS011;63211;48.548;2.704;2023-07-29T03:05:35;0.43;;;0.10;;
74679;SDS011;63211;48.548;2.704;2023-07-29T03:08:04;0.40;;;0.10;;
74679;SDS011;63211;48.548;2.704;2023-07-29T03:10:31;0.47;;;0.20;;
74679;SDS011;63211;48.548;2.704;2023-07-29T03:13:00;0.50;;;0.10;;
74679;SDS011;63211;48.548;2.704;2023-07-29T03:15:27;0.82;;;0.10;;
74679;SDS011;63211;48.548;2.704;2023-07-29T03:17:53;0.10;;;0.10;;
74679;SDS011;63211;48.548;2.704;2023-07-29T03:20:20;0.20;;;0.10;;
74679;SDS011;63211;48.548;2.704;2023-07-29T03:22:47;0.50;;;0.10;;
74679;SDS011;63211;48.548;2.704;2023-07-29T03:25:15;0.35;;;0.10;;
74679;SDS011;63211;48.548;2.704;2023-07-29T03:27:41;0.10;;;0.00;;
74679;SDS011;63211;48.548;2.704;2023-07-29T03:30:08;0.55;;;0.17;;
74679;SDS011;63211;48.548;2.704;2023-07-29T03:32:35;0.47;;;0.10;;
74679;SDS011;63211;48.548;2.704;2023-07-29T03:35:04;0.15;;;0.10;;
74679;SDS011;63211;48.548;2.704;2023-07-29T03:37:31;0.50;;;0.10;;
74679;SDS011;63211;48.548;2.704;2023-07-29T03:39:57;0.20;;;0.10;;
74679;SDS011;63211;48.548;2.704;2023-07-29T03:42:25;0.30;;;0.20;;
74679;SDS011;63211;48.548;2.704;2023-07-29T03:44:52;0.20;;;0.08;;
74679;SDS011;63211;48.548;2.704;2023-07-29T03:47:19;0.35;;;0.20;;
74679;SDS011;63211;48.548;2.704;2023-07-29T03:49:45;0.93;;;0.10;;
74679;SDS011;63211;48.548;2.704;2023-07-29T03:52:12;0.17;;;0.10;;
74679;SDS011;63211;48.548;2.704;2023-07-29T03:54:39;0.43;;;0.10;;
74679;SDS011;63211;48.548;2.704;2023-07-29T03:57:06;0.10;;;0.10;;
74679;SDS011;63211;48.548;2.704;2023-07-29T03:59:34;0.40;;;0.10;;
74679;SDS011;63211;48.548;2.704;2023-07-29T04:02:00;0.40;;;0.10;;
74679;SDS011;63211;48.548;2.704;2023-07-29T04:04:27;0.20;;;0.00;;
74679;SDS011;63211;48.548;2.704;2023-07-29T04:06:53;0.35;;;0.20;;
74679;SDS011;63211;48.548;2.704;2023-07-29T04:09:20;1.42;;;0.10;;
74679;SDS011;63211;48.548;2.704;2023-07-29T04:11:47;0.60;;;0.20;;
74679;SDS011;63211;48.548;2.704;2023-07-29T04:14:13;0.22;;;0.03;;
74679;SDS011;63211;48.548;2.704;2023-07-29T04:16:41;0.47;;;0.17;;
74679;SDS011;63211;48.548;2.704;2023-07-29T04:19:08;0.38;;;0.20;;
74679;SDS011;63211;48.548;2.704;2023-07-29T04:21:34;0.15;;;0.05;;
74679;SDS011;63211;48.548;2.704;2023-07-29T04:24:01;0.57;;;0.20;;
74679;SDS011;63211;48.548;2.704;2023-07-29T04:26:27;0.40;;;0.10;;
74679;SDS011;63211;48.548;2.704;2023-07-29T04:28:54;0.73;;;0.28;;
74679;SDS011;63211;48.548;2.704;2023-07-29T04:31:21;0.28;;;0.10;;
74679;SDS011;63211;48.548;2.704;2023-07-29T04:33:49;0.28;;;0.10;;
74679;SDS011;63211;48.548;2.704;2023-07-29T04:36:15;0.10;;;0.10;;
74679;SDS011;63211;48.548;2.704;2023-07-29T04:38:42;0.60;;;0.15;;
74679;SDS011;63211;48.548;2.704;2023-07-29T04:41:08;0.22;;;0.10;;
74679;SDS011;63211;48.548;2.704;2023-07-29T04:43:36;0.47;;;0.10;;
74679;SDS011;63211;48.548;2.704;2023-07-29T04:46:05;0.57;;;0.20;;
74679;SDS011;63211;48.548;2.704;2023-07-29T04:48:32;0.20;;;0.10;;
74679;SDS011;63211;48.548;2.704;2023-07-29T04:51:00;1.17;;;0.28;;
74679;SDS011;63211;48.548;2.704;2023-07-29T04:53:27;0.60;;;0.20;;
74679;SDS011;63211;48.548;2.704;2023-07-29T04:55:53;0.40;;;0.10;;
74679;SDS011;63211;48.548;2.704;2023-07-29T04:58:20;0.20;;;0.10;;
74679;SDS011;63211;48.548;2.704;2023-07-29T05:00:47;0.43;;;0.10;;
74679;SDS011;63211;48.548;2.704;2023-07-29T05:03:14;0.52;;;0.20;;
74679;SDS011;63211;48.548;2.704;2023-07-29T05:05:40;0.40;;;0.20;;
74679;SDS011;63211;48.548;2.704;2023-07-29T05:08:08;0.30;;;0.13;;
74679;SDS011;63211;48.548;2.704;2023-07-29T05:10:35;0.73;;;0.20;;
74679;SDS011;63211;48.548;2.704;2023-07-29T05:13:01;0.10;;;0.00;;
74679;SDS011;63211;48.548;2.704;2023-07-29T05:15:28;0.40;;;0.20;;
74679;SDS011;63211;48.548;2.704;2023-07-29T05:17:55;0.95;;;0.13;;
74679;SDS011;63211;48.548;2.704;2023-07-29T05:20:22;0.30;;;0.10;;
74679;SDS011;63211;48.548;2.704;2023-07-29T05:22:49;0.55;;;0.17;;
74679;SDS011;63211;48.548;2.704;2023-07-29T05:25:17;0.40;;;0.20;;
74679;SDS011;63211;48.548;2.704;2023-07-29T05:27:43;0.13;;;0.10;;
74679;SDS011;63211;48.548;2.704;2023-07-29T05:30:10;0.70;;;0.20;;
74679;SDS011;63211;48.548;2.704;2023-07-29T05:32:36;0.32;;;0.20;;
74679;SDS011;63211;48.548;2.704;2023-07-29T05:35:03;0.22;;;0.10;;
74679;SDS011;63211;48.548;2.704;2023-07-29T05:37:31;0.25;;;0.10;;
74679;SDS011;63211;48.548;2.704;2023-07-29T05:39:57;0.30;;;0.13;;
74679;SDS011;63211;48.548;2.704;2023-07-29T05:42:25;0.30;;;0.10;;
74679;SDS011;63211;48.548;2.704;2023-07-29T05:44:52;0.40;;;0.10;;
74679;SDS011;63211;48.548;2.704;2023-07-29T05:47:18;0.45;;;0.17;;
74679;SDS011;63211;48.548;2.704;2023-07-29T05:49:45;0.28;;;0.10;;
74679;SDS011;63211;48.548;2.704;2023-07-29T05:52:12;0.50;;;0.10;;
74679;SDS011;63211;48.548;2.704;2023-07-29T05:54:38;0.10;;;0.05;;
74679;SDS011;63211;48.548;2.704;2023-07-29T05:57:05;0.32;;;0.10;;
74679;SDS011;63211;48.548;2.704;2023-07-29T05:59:34;0.30;;;0.10;;
74679;SDS011;63211;48.548;2.704;2023-07-29T06:02:00;0.95;;;0.10;;
74679;SDS011;63211;48.548;2.704;2023-07-29T06:04:27;0.40;;;0.10;;
74679;SDS011;63211;48.548;2.704;2023-07-29T06:06:53;0.43;;;0.10;;
74679;SDS011;63211;48.548;2.704;2023-07-29T06:09:20;0.50;;;0.10;;
74679;SDS011;63211;48.548;2.704;2023-07-29T06:11:47;0.32;;;0.20;;
74679;SDS011;63211;48.548;2.704;2023-07-29T06:14:14;0.43;;;0.10;;
74679;SDS011;63211;48.548;2.704;2023-07-29T06:16:43;0.30;;;0.10;;
74679;SDS011;63211;48.548;2.704;2023-07-29T06:19:09;0.20;;;0.05;;
74679;SDS011;63211;48.548;2.704;2023-07-29T06:21:36;0.28;;;0.15;;
74679;SDS011;63211;48.548;2.704;2023-07-29T06:24:03;0.30;;;0.10;;
74679;SDS011;63211;48.548;2.704;2023-07-29T06:26:30;0.10;;;0.00;;
74679;SDS011;63211;48.548;2.704;2023-07-29T06:28:56;0.28;;;0.00;;
74679;SDS011;63211;48.548;2.704;2023-07-29T06:31:23;0.50;;;0.10;;
74679;SDS011;63211;48.548;2.704;2023-07-29T06:33:53;0.43;;;0.20;;
74679;SDS011;63211;48.548;2.704;2023-07-29T06:36:19;0.30;;;0.00;;
74679;SDS011;63211;48.548;2.704;2023-07-29T06:38:46;0.17;;;0.00;;
74679;SDS011;63211;48.548;2.704;2023-07-29T06:41:12;0.30;;;0.00;;
74679;SDS011;63211;48.548;2.704;2023-07-29T06:43:39;0.22;;;0.10;;
74679;SDS011;63211;48.548;2.704;2023-07-29T06:46:05;0.10;;;0.10;;
74679;SDS011;63211;48.548;2.704;2023-07-29T06:48:32;0.10;;;0.00;;
74679;SDS011;63211;48.548;2.704;2023-07-29T06:51:00;0.28;;;0.03;;
74679;SDS011;63211;48.548;2.704;2023-07-29T06:53:27;0.10;;;0.10;;
74679;SDS011;63211;48.548;2.704;2023-07-29T06:55:54;0.15;;;0.00;;
74679;SDS011;63211;48.548;2.704;2023-07-29T06:58:20;0.65;;;0.25;;
74679;SDS011;63211;48.548;2.704;2023-07-29T07:00:47;0.00;;;0.00;;
74679;SDS011;63211;48.548;2.704;2023-07-29T07:03:15;0.43;;;0.17;;
74679;SDS011;63211;48.548;2.704;2023-07-29T07:05:41;0.60;;;0.10;;
74679;SDS011;63211;48.548;2.704;2023-07-29T07:08:09;1.08;;;0.10;;
74679;SDS011;63211;48.548;2.704;2023-07-29T07:10:36;0.30;;;0.03;;
74679;SDS011;63211;48.548;2.704;2023-07-29T07:13:03;0.60;;;0.10;;
74679;SDS011;63211;48.548;2.704;2023-07-29T07:15:29;0.32;;;0.10;;
74679;SDS011;63211;48.548;2.704;2023-07-29T07:17:57;0.25;;;0.00;;
74679;SDS011;63211;48.548;2.704;2023-07-29T07:20:23;0.32;;;0.10;;
74679;SDS011;63211;48.548;2.704;2023-07-29T07:22:50;0.57;;;0.20;;
74679;SDS011;63211;48.548;2.704;2023-07-29T07:25:18;0.40;;;0.10;;
74679;SDS011;63211;48.548;2.704;2023-07-29T07:27:44;0.20;;;0.00;;
74679;SDS011;63211;48.548;2.704;2023-07-29T07:30:11;0.30;;;0.10;;
74679;SDS011;63211;48.548;2.704;2023-07-29T07:32:38;0.30;;;0.00;;
74679;SDS011;63211;48.548;2.704;2023-07-29T07:35:04;0.05;;;0.05;;
74679;SDS011;63211;48.548;2.704;2023-07-29T07:37:31;0.28;;;0.10;;
74679;SDS011;63211;48.548;2.704;2023-07-29T07:39:58;0.80;;;0.20;;
74679;SDS011;63211;48.548;2.704;2023-07-29T07:42:26;0.38;;;0.10;;
74679;SDS011;63211;48.548;2.704;2023-07-29T07:44:52;0.32;;;0.00;;
74679;SDS011;63211;48.548;2.704;2023-07-29T07:47:19;0.08;;;0.00;;
74679;SDS011;63211;48.548;2.704;2023-07-29T07:49:45;0.55;;;0.40;;
74679;SDS011;63211;48.548;2.704;2023-07-29T07:52:14;0.25;;;0.20;;
74679;SDS011;63211;48.548;2.704;2023-07-29T07:54:40;0.15;;;0.08;;
74679;SDS011;63211;48.548;2.704;2023-07-29T07:57:07;0.28;;;0.10;;
74679;SDS011;63211;48.548;2.704;2023-07-29T07:59:35;0.55;;;0.25;;
74679;SDS011;63211;48.548;2.704;2023-07-29T08:02:02;0.20;;;0.08;;
74679;SDS011;63211;48.548;2.704;2023-07-29T08:04:28;0.77;;;0.20;;
74679;SDS011;63211;48.548;2.704;2023-07-29T08:06:55;1.17;;;0.10;;
74679;SDS011;63211;48.548;2.704;2023-07-29T08:09:22;0.98;;;0.10;;
74679;SDS011;63211;48.548;2.704;2023-07-29T08:11:48;0.35;;;0.05;;
74679;SDS011;63211;48.548;2.704;2023-07-29T08:14:15;0.50;;;0.25;;
74679;SDS011;63211;48.548;2.704;2023-07-29T08:16:43;0.30;;;0.10;;
74679;SDS011;63211;48.548;2.704;2023-07-29T08:19:09;0.52;;;0.20;;
74679;SDS011;63211;48.548;2.704;2023-07-29T08:21:36;0.25;;;0.10;;
74679;SDS011;63211;48.548;2.704;2023-07-29T08:24:02;0.28;;;0.10;;
74679;SDS011;63211;48.548;2.704;2023-07-29T08:26:29;0.30;;;0.10;;
74679;SDS011;63211;48.548;2.704;2023-07-29T08:28:56;0.40;;;0.20;;
74679;SDS011;63211;48.548;2.704;2023-07-29T08:31:22;0.30;;;0.10;;
74679;SDS011;63211;48.548;2.704;2023-07-29T08:33:50;0.35;;;0.10;;
74679;SDS011;63211;48.548;2.704;2023-07-29T08:36:17;0.30;;;0.05;;
74679;SDS011;63211;48.548;2.704;2023-07-29T08:38:43;0.10;;;0.10;;
74679;SDS011;63211;48.548;2.704;2023-07-29T08:41:11;0.45;;;0.22;;
74679;SDS011;63211;48.548;2.704;2023-07-29T08:43:52;0.43;;;0.10;;
74679;SDS011;63211;48.548;2.704;2023-07-29T08:46:24;0.52;;;0.13;;
74679;SDS011;63211;48.548;2.704;2023-07-29T08:48:53;0.38;;;0.10;;
74679;SDS011;63211;48.548;2.704;2023-07-29T08:51:21;0.10;;;0.08;;
74679;SDS011;63211;48.548;2.704;2023-07-29T08:53:49;1.08;;;0.10;;
74679;SDS011;63211;48.548;2.704;2023-07-29T08:56:16;1.23;;;0.20;;
74679;SDS011;63211;48.548;2.704;2023-07-29T08:58:43;0.75;;;0.40;;
74679;SDS011;63211;48.548;2.704;2023-07-29T09:01:10;0.93;;;0.40;;
74679;SDS011;63211;48.548;2.704;2023-07-29T09:03:36;1.25;;;1.10;;
74679;SDS011;63211;48.548;2.704;2023-07-29T09:06:04;1.33;;;1.15;;
74679;SDS011;63211;48.548;2.704;2023-07-29T09:08:32;1.77;;;1.33;;
74679;SDS011;63211;48.548;2.704;2023-07-29T09:10:59;2.75;;;2.10;;
74679;SDS011;63211;48.548;2.704;2023-07-29T09:13:26;2.00;;;1.63;;
74679;SDS011;63211;48.548;2.704;2023-07-29T09:15:54;4.13;;;2.20;;
74679;SDS011;63211;48.548;2.704;2023-07-29T09:18:21;2.58;;;1.98;;
74679;SDS011;63211;48.548;2.704;2023-07-29T09:20:48;2.58;;;1.98;;
74679;SDS011;63211;48.548;2.704;2023-07-29T09:23:17;3.17;;;1.63;;
74679;SDS011;63211;48.548;2.704;2023-07-29T09:25:45;3.05;;;2.15;;
74679;SDS011;63211;48.548;2.704;2023-07-29T09:28:13;2.33;;;1.80;;
74679;SDS011;63211;48.548;2.704;2023-07-29T09:30:42;4.75;;;2.28;;
74679;SDS011;63211;48.548;2.704;2023-07-29T09:33:09;2.13;;;1.90;;
74679;SDS011;63211;48.548;2.704;2023-07-29T09:35:36;1.98;;;1.50;;
74679;SDS011;63211;48.548;2.704;2023-07-29T09:38:04;1.88;;;1.50;;
74679;SDS011;63211;48.548;2.704;2023-07-29T09:40:35;1.63;;;1.35;;
74679;SDS011;63211;48.548;2.704;2023-07-29T09:43:03;2.13;;;1.42;;
74679;SDS011;63211;48.548;2.704;2023-07-29T09:45:30;2.42;;;1.73;;
74679;SDS011;63211;48.548;2.704;2023-07-29T09:48:00;2.10;;;1.33;;
74679;SDS011;63211;48.548;2.704;2023-07-29T09:50:26;2.35;;;1.60;;
74679;SDS011;63211;48.548;2.704;2023-07-29T09:52:54;2.42;;;1.42;;
74679;SDS011;63211;48.548;2.704;2023-07-29T09:55:23;4.95;;;1.63;;
74679;SDS011;63211;48.548;2.704;2023-07-29T09:57:54;1.90;;;1.70;;
74679;SDS011;63211;48.548;2.704;2023-07-29T10:00:23;2.45;;;1.30;;
74679;SDS011;63211;48.548;2.704;2023-07-29T10:02:49;2.85;;;1.40;;
74679;SDS011;63211;48.548;2.704;2023-07-29T10:05:18;1.63;;;1.30;;
74679;SDS011;63211;48.548;2.704;2023-07-29T10:07:45;1.52;;;1.30;;
74679;SDS011;63211;48.548;2.704;2023-07-29T10:10:13;3.42;;;1.38;;
74679;SDS011;63211;48.548;2.704;2023-07-29T10:12:40;2.72;;;1.70;;
74679;SDS011;63211;48.548;2.704;2023-07-29T10:15:09;1.50;;;1.17;;
74679;SDS011;63211;48.548;2.704;2023-07-29T10:17:36;2.25;;;1.90;;
74679;SDS011;63211;48.548;2.704;2023-07-29T10:20:05;3.22;;;1.50;;
74679;SDS011;63211;48.548;2.704;2023-07-29T10:22:33;2.03;;;1.50;;
74679;SDS011;63211;48.548;2.704;2023-07-29T10:25:02;2.05;;;1.45;;
74679;SDS011;63211;48.548;2.704;2023-07-29T10:27:32;3.03;;;1.60;;
74679;SDS011;63211;48.548;2.704;2023-07-29T10:30:04;2.15;;;1.33;;
74679;SDS011;63211;48.548;2.704;2023-07-29T10:32:33;2.05;;;1.20;;
74679;SDS011;63211;48.548;2.704;2023-07-29T10:35:00;2.65;;;1.30;;
74679;SDS011;63211;48.548;2.704;2023-07-29T10:37:27;1.38;;;1.23;;
74679;SDS011;63211;48.548;2.704;2023-07-29T10:39:54;1.75;;;1.23;;
74679;SDS011;63211;48.548;2.704;2023-07-29T10:42:21;2.90;;;1.80;;
74679;SDS011;63211;48.548;2.704;2023-07-29T10:44:49;4.38;;;1.33;;
74679;SDS011;63211;48.548;2.704;2023-07-29T10:47:17;4.55;;;1.20;;
74679;SDS011;63211;48.548;2.704;2023-07-29T10:49:48;1.48;;;1.00;;
74679;SDS011;63211;48.548;2.704;2023-07-29T10:52:17;2.50;;;1.10;;
74679;SDS011;63211;48.548;2.704;2023-07-29T10:54:57;2.28;;;1.15;;
74679;SDS011;63211;48.548;2.704;2023-07-29T10:57:30;1.85;;;1.08;;
74679;SDS011;63211;48.548;2.704;2023-07-29T10:59:58;1.50;;;0.90;;
74679;SDS011;63211;48.548;2.704;2023-07-29T11:02:28;1.83;;;0.88;;
74679;SDS011;63211;48.548;2.704;2023-07-29T11:04:57;0.90;;;0.68;;
74679;SDS011;63211;48.548;2.704;2023-07-29T11:07:25;2.38;;;1.23;;
74679;SDS011;63211;48.548;2.704;2023-07-29T11:09:58;1.77;;;1.45;;
74679;SDS011;63211;48.548;2.704;2023-07-29T11:12:44;1.88;;;1.08;;
74679;SDS011;63211;48.548;2.704;2023-07-29T11:15:13;2.58;;;0.90;;
74679;SDS011;63211;48.548;2.704;2023-07-29T11:17:49;2.67;;;0.95;;
74679;SDS011;63211;48.548;2.704;2023-07-29T11:20:30;1.35;;;0.80;;
74679;SDS011;63211;48.548;2.704;2023-07-29T11:22:58;3.05;;;0.75;;
74679;SDS011;63211;48.548;2.704;2023-07-29T11:25:27;1.38;;;0.88;;
74679;SDS011;63211;48.548;2.704;2023-07-29T11:27:55;1.67;;;0.80;;
74679;SDS011;63211;48.548;2.704;2023-07-29T11:30:23;0.95;;;0.70;;
74679;SDS011;63211;48.548;2.704;2023-07-29T11:32:54;0.95;;;0.63;;
74679;SDS011;63211;48.548;2.704;2023-07-29T11:35:29;1.90;;;1.00;;
74679;SDS011;63211;48.548;2.704;2023-07-29T11:37:56;1.92;;;0.70;;
74679;SDS011;63211;48.548;2.704;2023-07-29T11:40:22;1.27;;;0.70;;
74679;SDS011;63211;48.548;2.704;2023-07-29T11:42:51;1.40;;;0.65;;
74679;SDS011;63211;48.548;2.704;2023-07-29T11:45:23;1.10;;;0.77;;
74679;SDS011;63211;48.548;2.704;2023-07-29T11:47:50;1.98;;;0.70;;
74679;SDS011;63211;48.548;2.704;2023-07-29T11:50:18;0.77;;;0.50;;
74679;SDS011;63211;48.548;2.704;2023-07-29T11:52:49;1.75;;;0.98;;
74679;SDS011;63211;48.548;2.704;2023-07-29T11:55:16;1.40;;;0.63;;
74679;SDS011;63211;48.548;2.704;2023-07-29T11:57:44;1.13;;;0.70;;
74679;SDS011;63211;48.548;2.704;2023-07-29T12:00:11;0.75;;;0.50;;
74679;SDS011;63211;48.548;2.704;2023-07-29T12:02:40;1.70;;;0.68;;
74679;SDS011;63211;48.548;2.704;2023-07-29T12:05:09;1.42;;;0.70;;
74679;SDS011;63211;48.548;2.704;2023-07-29T12:07:37;1.17;;;0.65;;
74679;SDS011;63211;48.548;2.704;2023-07-29T12:10:06;1.55;;;0.57;;
74679;SDS011;63211;48.548;2.704;2023-07-29T12:12:35;1.52;;;0.50;;
74679;SDS011;63211;48.548;2.704;2023-07-29T12:15:05;1.45;;;0.60;;
74679;SDS011;63211;48.548;2.704;2023-07-29T12:17:37;0.95;;;0.50;;
74679;SDS011;63211;48.548;2.704;2023-07-29T12:20:07;2.75;;;0.70;;
74679;SDS011;63211;48.548;2.704;2023-07-29T12:22:36;0.88;;;0.57;;
74679;SDS011;63211;48.548;2.704;2023-07-29T12:25:07;1.05;;;0.63;;
74679;SDS011;63211;48.548;2.704;2023-07-29T12:27:35;2.67;;;0.75;;
74679;SDS011;63211;48.548;2.704;2023-07-29T12:30:02;1.30;;;0.60;;
74679;SDS011;63211;48.548;2.704;2023-07-29T12:32:29;1.67;;;0.93;;
74679;SDS011;63211;48.548;2.704;2023-07-29T12:34:56;1.65;;;0.52;;
74679;SDS011;63211;48.548;2.704;2023-07-29T12:37:30;1.83;;;0.70;;
74679;SDS011;63211;48.548;2.704;2023-07-29T12:39:57;1.05;;;0.63;;
74679;SDS011;63211;48.548;2.704;2023-07-29T12:42:25;0.63;;;0.40;;
74679;SDS011;63211;48.548;2.704;2023-07-29T12:44:52;2.67;;;0.65;;
74679;SDS011;63211;48.548;2.704;2023-07-29T12:47:20;1.27;;;0.50;;
74679;SDS011;63211;48.548;2.704;2023-07-29T12:49:47;1.20;;;0.50;;
74679;SDS011;63211;48.548;2.704;2023-07-29T12:52:13;1.77;;;0.40;;
74679;SDS011;63211;48.548;2.704;2023-07-29T12:54:40;1.75;;;0.70;;
74679;SDS011;63211;48.548;2.704;2023-07-29T12:57:09;1.30;;;0.60;;
74679;SDS011;63211;48.548;2.704;2023-07-29T12:59:37;1.00;;;0.45;;
74679;SDS011;63211;48.548;2.704;2023-07-29T13:02:04;1.77;;;0.70;;
74679;SDS011;63211;48.548;2.704;2023-07-29T13:04:30;1.27;;;0.60;;
74679;SDS011;63211;48.548;2.704;2023-07-29T13:06:57;1.55;;;0.40;;
74679;SDS011;63211;48.548;2.704;2023-07-29T13:09:24;0.77;;;0.30;;
74679;SDS011;63211;48.548;2.704;2023-07-29T13:11:51;2.33;;;0.57;;
74679;SDS011;63211;48.548;2.704;2023-07-29T13:14:17;3.58;;;0.90;;
74679;SDS011;63211;48.548;2.704;2023-07-29T13:16:45;2.05;;;0.88;;
74679;SDS011;63211;48.548;2.704;2023-07-29T13:19:12;0.68;;;0.38;;
74679;SDS011;63211;48.548;2.704;2023-07-29T13:21:38;1.00;;;0.60;;
74679;SDS011;63211;48.548;2.704;2023-07-29T13:24:05;0.68;;;0.30;;
74679;SDS011;63211;48.548;2.704;2023-07-29T13:26:31;1.33;;;0.73;;
74679;SDS011;63211;48.548;2.704;2023-07-29T13:28:58;0.88;;;0.45;;
74679;SDS011;63211;48.548;2.704;2023-07-29T13:31:24;1.83;;;0.60;;
74679;SDS011;63211;48.548;2.704;2023-07-29T13:33:52;1.30;;;0.60;;
74679;SDS011;63211;48.548;2.704;2023-07-29T13:36:19;1.38;;;0.55;;
74679;SDS011;63211;48.548;2.704;2023-07-29T13:38:45;0.80;;;0.30;;
74679;SDS011;63211;48.548;2.704;2023-07-29T13:41:12;0.60;;;0.30;;
74679;SDS011;63211;48.548;2.704;2023-07-29T13:43:39;1.27;;;0.40;;
74679;SDS011;63211;48.548;2.704;2023-07-29T13:46:05;0.77;;;0.40;;
74679;SDS011;63211;48.548;2.704;2023-07-29T13:48:32;0.60;;;0.40;;
74679;SDS011;63211;48.548;2.704;2023-07-29T13:51:02;1.08;;;0.20;;
74679;SDS011;63211;48.548;2.704;2023-07-29T13:53:28;1.27;;;0.40;;
74679;SDS011;63211;48.548;2.704;2023-07-29T13:55:55;1.10;;;0.35;;
74679;SDS011;63211;48.548;2.704;2023-07-29T13:58:22;1.40;;;0.68;;
74679;SDS011;63211;48.548;2.704;2023-07-29T14:00:48;0.32;;;0.20;;
74679;SDS011;63211;48.548;2.704;2023-07-29T14:03:15;1.50;;;0.40;;
74679;SDS011;63211;48.548;2.704;2023-07-29T14:05:41;1.55;;;0.30;;
74679;SDS011;63211;48.548;2.704;2023-07-29T14:08:12;0.70;;;0.35;;
74679;SDS011;63211;48.548;2.704;2023-07-29T14:10:38;0.63;;;0.38;;
74679;SDS011;63211;48.548;2.704;2023-07-29T14:13:05;0.70;;;0.30;;
74679;SDS011;63211;48.548;2.704;2023-07-29T14:15:31;1.00;;;0.32;;
74679;SDS011;63211;48.548;2.704;2023-07-29T14:17:58;0.60;;;0.30;;
74679;SDS011;63211;48.548;2.704;2023-07-29T14:20:25;0.50;;;0.30;;
74679;SDS011;63211;48.548;2.704;2023-07-29T14:22:52;1.05;;;0.45;;
74679;SDS011;63211;48.548;2.704;2023-07-29T14:25:20;1.33;;;0.40;;
74679;SDS011;63211;48.548;2.704;2023-07-29T14:27:46;1.27;;;0.50;;
74679;SDS011;63211;48.548;2.704;2023-07-29T14:30:13;0.80;;;0.35;;
74679;SDS011;63211;48.548;2.704;2023-07-29T14:32:39;1.40;;;0.30;;
74679;SDS011;63211;48.548;2.704;2023-07-29T14:35:06;2.67;;;0.35;;
74679;SDS011;63211;48.548;2.704;2023-07-29T14:37:34;1.08;;;0.52;;
74679;SDS011;63211;48.548;2.704;2023-07-29T14:40:01;1.58;;;0.22;;
74679;SDS011;63211;48.548;2.704;2023-07-29T14:42:29;2.70;;;0.40;;
74679;SDS011;63211;48.548;2.704;2023-07-29T14:44:55;0.82;;;0.28;;
74679;SDS011;63211;48.548;2.704;2023-07-29T14:47:22;1.13;;;0.40;;
74679;SDS011;63211;48.548;2.704;2023-07-29T14:49:49;1.23;;;0.70;;